createdAt,value
2019-03-13T00:00:19.520Z,6.3
2019-03-13T00:01:29.707Z,6.36
2019-03-13T00:02:39.836Z,6.34
2019-03-13T00:03:49.945Z,6.28
2019-03-13T00:05:00.057Z,6.31
2019-03-13T00:06:10.196Z,6.41
2019-03-13T00:07:20.308Z,6.44
2019-03-13T00:08:30.405Z,6.31
2019-03-13T00:09:40.555Z,6.39
2019-03-13T00:10:50.696Z,6.28
2019-03-13T00:12:00.818Z,6.3
2019-03-13T00:13:10.951Z,6.3
2019-03-13T00:14:20.803Z,6.26
2019-03-13T00:15:30.950Z,6.39
2019-03-13T00:16:41.069Z,6.3
2019-03-13T00:17:51.163Z,6.31
2019-03-13T00:19:01.294Z,6.31
2019-03-13T00:20:11.466Z,6.3
2019-03-13T00:21:21.579Z,6.39
2019-03-13T00:22:31.679Z,6.3
2019-03-13T00:23:41.800Z,6.27
2019-03-13T00:24:52.100Z,6.34
2019-03-13T00:26:04.040Z,6.26
2019-03-13T00:27:14.173Z,6.31
2019-03-13T00:28:24.311Z,6.27
2019-03-13T00:29:34.407Z,6.28
2019-03-13T00:30:44.516Z,6.3
2019-03-13T00:31:54.379Z,6.21
2019-03-13T00:33:07.347Z,6.26
2019-03-13T00:34:17.106Z,6.16
2019-03-13T00:35:27.223Z,6.2
2019-03-13T00:36:37.330Z,6.12
2019-03-13T00:37:47.430Z,6.21
2019-03-13T00:38:57.558Z,6.19
2019-03-13T00:40:07.666Z,6.17
2019-03-13T00:41:17.781Z,6.16
2019-03-13T00:42:27.895Z,6.23
2019-03-13T00:43:38.018Z,6.16
2019-03-13T00:44:48.146Z,6.12
2019-03-13T00:45:58.203Z,6.16
2019-03-13T00:47:08.340Z,6.16
2019-03-13T00:48:18.459Z,6.14
2019-03-13T00:49:28.570Z,6.17
2019-03-13T00:50:38.678Z,6.16
2019-03-13T00:51:48.788Z,6.23
2019-03-13T00:52:58.907Z,6.21
2019-03-13T00:54:09.045Z,6.16
2019-03-13T00:55:19.155Z,6.2
2019-03-13T00:56:29.257Z,6.21
2019-03-13T00:57:39.379Z,6.17
2019-03-13T00:58:49.486Z,6.17
2019-03-13T00:59:59.591Z,6.23
2019-03-13T01:01:09.445Z,6.16
2019-03-13T01:02:19.559Z,6.21
2019-03-13T01:03:29.663Z,6.14
2019-03-13T01:04:39.790Z,6.17
2019-03-13T01:05:49.909Z,6.19
2019-03-13T01:07:00.021Z,6.19
2019-03-13T01:08:10.128Z,6.16
2019-03-13T01:09:20.251Z,6.19
2019-03-13T01:10:30.371Z,6.19
2019-03-13T01:11:40.469Z,6.14
2019-03-13T01:12:50.567Z,6.24
2019-03-13T01:14:00.700Z,6.17
2019-03-13T01:15:10.564Z,6.19
2019-03-13T01:16:20.925Z,6.21
2019-03-13T01:17:31.085Z,6.24
2019-03-13T01:18:44.339Z,6.21
2019-03-13T01:19:54.446Z,6.28
2019-03-13T01:21:04.611Z,6.27
2019-03-13T01:22:14.486Z,6.3
2019-03-13T01:23:24.585Z,6.3
2019-03-13T01:24:34.692Z,6.28
2019-03-13T01:25:44.792Z,6.28
2019-03-13T01:26:54.929Z,6.35
2019-03-13T01:28:05.061Z,6.35
2019-03-13T01:29:15.191Z,6.42
2019-03-13T01:30:25.289Z,6.42
2019-03-13T01:31:35.391Z,6.44
2019-03-13T01:32:45.508Z,6.54
2019-03-13T01:33:55.647Z,6.46
2019-03-13T01:35:05.745Z,6.57
2019-03-13T01:36:15.853Z,6.56
2019-03-13T01:37:25.988Z,6.53
2019-03-13T01:38:36.095Z,6.38
2019-03-13T01:39:46.214Z,6.28
2019-03-13T01:40:56.415Z,6.16
2019-03-13T01:42:06.517Z,6.12
2019-03-13T01:43:16.620Z,6.01
2019-03-13T01:44:26.716Z,5.99
2019-03-13T01:45:36.836Z,5.9
2019-03-13T01:46:46.938Z,5.93
2019-03-13T01:47:57.046Z,5.67
2019-03-13T01:49:07.200Z,5.69
2019-03-13T01:50:17.326Z,5.54
2019-03-13T01:51:27.270Z,5.53
2019-03-13T01:52:37.483Z,5.47
2019-03-13T01:53:47.584Z,5.5
2019-03-13T01:54:57.701Z,5.4
2019-03-13T01:56:07.891Z,5.29
2019-03-13T01:57:18.000Z,5.28
2019-03-13T01:58:28.118Z,5.33
2019-03-13T01:59:38.233Z,5.29
2019-03-13T02:00:48.338Z,5.25
2019-03-13T02:01:58.435Z,5.18
2019-03-13T02:03:08.555Z,5.21
2019-03-13T02:04:18.665Z,5.13
2019-03-13T02:05:28.795Z,5.1
2019-03-13T02:06:38.896Z,5.04
2019-03-13T02:07:49.001Z,5.07
2019-03-13T02:08:59.107Z,5.08
2019-03-13T02:10:09.210Z,5.04
2019-03-13T02:11:19.337Z,5
2019-03-13T02:12:29.183Z,5.04
2019-03-13T02:13:39.346Z,4.95
2019-03-13T02:14:49.238Z,4.96
2019-03-13T02:15:59.333Z,4.95
2019-03-13T02:17:09.462Z,4.9
2019-03-13T02:18:19.576Z,4.93
2019-03-13T02:19:29.675Z,4.95
2019-03-13T02:20:39.798Z,4.98
2019-03-13T02:21:49.910Z,4.9
2019-03-13T02:23:00.069Z,4.89
2019-03-13T02:24:10.164Z,4.98
2019-03-13T02:25:20.285Z,4.98
2019-03-13T02:26:30.388Z,4.98
2019-03-13T02:27:40.503Z,4.85
2019-03-13T02:28:50.612Z,4.83
2019-03-13T02:30:00.916Z,4.9
2019-03-13T02:31:10.777Z,4.81
2019-03-13T02:32:20.913Z,4.74
2019-03-13T02:33:30.764Z,4.75
2019-03-13T02:34:40.872Z,4.78
2019-03-13T02:35:50.994Z,4.71
2019-03-13T02:37:01.155Z,4.74
2019-03-13T02:38:11.275Z,4.78
2019-03-13T02:39:21.397Z,4.67
2019-03-13T02:40:31.527Z,4.71
2019-03-13T02:41:41.636Z,4.77
2019-03-13T02:42:51.740Z,4.8
2019-03-13T02:44:01.878Z,4.77
2019-03-13T02:45:11.987Z,4.63
2019-03-13T02:46:22.119Z,4.73
2019-03-13T02:47:32.234Z,4.67
2019-03-13T02:48:42.351Z,4.74
2019-03-13T02:49:52.523Z,4.67
2019-03-13T02:51:02.393Z,4.74
2019-03-13T02:52:12.520Z,4.77
2019-03-13T02:53:22.545Z,4.71
2019-03-13T02:54:32.667Z,4.83
2019-03-13T02:55:43.812Z,4.73
2019-03-13T02:56:54.043Z,4.7
2019-03-13T02:58:04.189Z,4.75
2019-03-13T02:59:14.326Z,4.78
2019-03-13T03:00:24.205Z,4.81
2019-03-13T03:01:34.362Z,4.71
2019-03-13T03:02:44.467Z,4.67
2019-03-13T03:03:54.606Z,4.74
2019-03-13T03:05:04.730Z,4.67
2019-03-13T03:06:14.917Z,4.53
2019-03-13T03:07:25.035Z,4.65
2019-03-13T03:08:35.319Z,4.52
2019-03-13T03:09:45.502Z,4.59
2019-03-13T03:10:55.638Z,4.53
2019-03-13T03:12:05.793Z,4.62
2019-03-13T03:13:15.929Z,4.62
2019-03-13T03:14:26.040Z,4.56
2019-03-13T03:15:36.186Z,4.67
2019-03-13T03:16:46.320Z,4.65
2019-03-13T03:17:56.442Z,4.56
2019-03-13T03:19:06.547Z,4.53
2019-03-13T03:20:16.790Z,4.56
2019-03-13T03:21:26.960Z,4.5
2019-03-13T03:22:37.070Z,4.43
2019-03-13T03:23:50.240Z,4.46
2019-03-13T03:25:00.582Z,4.38
2019-03-13T03:26:10.789Z,4.31
2019-03-13T03:27:20.897Z,4.3
2019-03-13T03:28:31.044Z,4.34
2019-03-13T03:29:43.858Z,4.31
2019-03-13T03:30:53.970Z,4.25
2019-03-13T03:32:04.261Z,4.22
2019-03-13T03:33:14.705Z,4.2
2019-03-13T03:34:24.907Z,4.19
2019-03-13T03:35:35.032Z,4.2
2019-03-13T03:36:45.171Z,4.22
2019-03-13T03:37:55.355Z,4.16
2019-03-13T03:39:05.474Z,4.23
2019-03-13T03:40:15.359Z,4.15
2019-03-13T03:41:30.301Z,4.16
2019-03-13T03:42:40.420Z,4.23
2019-03-13T03:43:50.274Z,4.27
2019-03-13T03:45:00.669Z,4.23
2019-03-13T03:46:10.901Z,4.2
2019-03-13T03:47:21.038Z,4.23
2019-03-13T03:48:31.156Z,4.2
2019-03-13T03:49:40.934Z,4.22
2019-03-13T03:50:51.051Z,4.25
2019-03-13T03:52:01.169Z,4.19
2019-03-13T03:53:11.335Z,4.23
2019-03-13T03:54:21.483Z,4.19
2019-03-13T03:55:31.590Z,4.11
2019-03-13T03:56:41.728Z,4.11
2019-03-13T03:57:51.861Z,4.12
2019-03-13T03:59:01.738Z,4.08
2019-03-13T04:00:11.958Z,4.03
2019-03-13T04:01:22.090Z,4.01
2019-03-13T04:02:32.210Z,4.13
2019-03-13T04:03:42.336Z,4
2019-03-13T04:04:52.445Z,4.08
2019-03-13T04:06:02.578Z,4.05
2019-03-13T04:07:12.723Z,3.98
2019-03-13T04:08:22.831Z,4.08
2019-03-13T04:09:32.936Z,3.97
2019-03-13T04:10:42.801Z,3.95
2019-03-13T04:11:52.932Z,3.97
2019-03-13T04:13:02.794Z,3.9
2019-03-13T04:14:13.073Z,3.94
2019-03-13T04:15:23.274Z,3.9
2019-03-13T04:16:33.473Z,3.86
2019-03-13T04:17:43.603Z,3.93
2019-03-13T04:18:53.795Z,3.94
2019-03-13T04:20:03.919Z,3.91
2019-03-13T04:21:14.034Z,3.87
2019-03-13T04:22:24.142Z,3.82
2019-03-13T04:23:34.266Z,3.87
2019-03-13T04:24:44.135Z,3.73
2019-03-13T04:25:54.235Z,3.67
2019-03-13T04:27:04.338Z,3.68
2019-03-13T04:28:14.507Z,3.72
2019-03-13T04:29:24.714Z,3.69
2019-03-13T04:30:34.813Z,3.73
2019-03-13T04:31:44.947Z,3.75
2019-03-13T04:32:55.062Z,3.79
2019-03-13T04:34:05.168Z,3.77
2019-03-13T04:35:15.376Z,3.82
2019-03-13T04:36:25.486Z,3.79
2019-03-13T04:37:35.710Z,3.82
2019-03-13T04:38:45.829Z,3.73
2019-03-13T04:39:55.940Z,3.72
2019-03-13T04:41:05.779Z,3.72
2019-03-13T04:42:15.638Z,3.76
2019-03-13T04:43:25.750Z,3.69
2019-03-13T04:44:35.843Z,3.65
2019-03-13T04:45:45.961Z,3.68
2019-03-13T04:46:56.059Z,3.76
2019-03-13T04:48:06.165Z,3.77
2019-03-13T04:49:16.295Z,3.68
2019-03-13T04:50:26.422Z,3.67
2019-03-13T04:51:36.516Z,3.65
2019-03-13T04:52:46.629Z,3.65
2019-03-13T04:53:56.735Z,3.68
2019-03-13T04:55:06.934Z,3.69
2019-03-13T04:56:17.309Z,3.77
2019-03-13T04:57:27.416Z,3.57
2019-03-13T04:58:37.671Z,3.59
2019-03-13T04:59:47.794Z,3.58
2019-03-13T05:00:58.129Z,3.55
2019-03-13T05:02:08.261Z,3.57
2019-03-13T05:03:18.389Z,3.59
2019-03-13T05:04:28.355Z,3.64
2019-03-13T05:05:38.457Z,3.59
2019-03-13T05:06:48.546Z,3.54
2019-03-13T05:07:58.635Z,3.57
2019-03-13T05:09:08.754Z,3.46
2019-03-13T05:10:18.860Z,3.46
2019-03-13T05:11:29.082Z,3.46
2019-03-13T05:12:39.201Z,3.4
2019-03-13T05:13:50.296Z,3.37
2019-03-13T05:15:00.471Z,3.4
2019-03-13T05:16:10.580Z,3.37
2019-03-13T05:17:20.682Z,3.44
2019-03-13T05:18:30.546Z,3.42
2019-03-13T05:19:40.675Z,3.34
2019-03-13T05:20:50.768Z,3.42
2019-03-13T05:22:00.875Z,3.44
2019-03-13T05:23:11.000Z,3.42
2019-03-13T05:24:21.105Z,3.42
2019-03-13T05:25:31.237Z,3.4
2019-03-13T05:26:41.358Z,3.46
2019-03-13T05:27:51.472Z,3.42
2019-03-13T05:29:01.322Z,3.42
2019-03-13T05:30:11.467Z,3.44
2019-03-13T05:31:21.567Z,3.4
2019-03-13T05:32:31.700Z,3.46
2019-03-13T05:33:41.920Z,3.49
2019-03-13T05:34:52.063Z,3.46
2019-03-13T05:36:02.178Z,3.43
2019-03-13T05:37:12.361Z,3.34
2019-03-13T05:38:22.491Z,3.34
2019-03-13T05:39:32.611Z,3.37
2019-03-13T05:40:42.718Z,3.46
2019-03-13T05:41:52.887Z,3.37
2019-03-13T05:43:03.023Z,3.4
2019-03-13T05:44:13.143Z,3.34
2019-03-13T05:45:23.268Z,3.5
2019-03-13T05:46:33.384Z,3.52
2019-03-13T05:47:43.487Z,3.58
2019-03-13T05:48:53.594Z,3.59
2019-03-13T05:50:03.702Z,3.55
2019-03-13T05:51:13.799Z,3.61
2019-03-13T05:52:23.911Z,3.61
2019-03-13T05:53:34.011Z,3.59
2019-03-13T05:54:44.125Z,3.57
2019-03-13T05:55:54.231Z,3.57
2019-03-13T05:57:04.357Z,3.57
2019-03-13T05:58:14.485Z,3.58
2019-03-13T05:59:24.595Z,3.5
2019-03-13T06:00:34.692Z,3.59
2019-03-13T06:01:44.813Z,3.59
2019-03-13T06:02:54.919Z,3.54
2019-03-13T06:04:04.763Z,3.55
2019-03-13T06:05:14.926Z,3.49
2019-03-13T06:06:25.068Z,3.55
2019-03-13T06:07:35.189Z,3.52
2019-03-13T06:08:45.290Z,3.54
2019-03-13T06:09:55.424Z,3.55
2019-03-13T06:11:05.902Z,3.55
2019-03-13T06:12:16.023Z,3.57
2019-03-13T06:13:26.148Z,3.64
2019-03-13T06:14:36.269Z,3.58
2019-03-13T06:15:46.388Z,3.62
2019-03-13T06:16:56.495Z,3.58
2019-03-13T06:18:09.366Z,3.57
2019-03-13T06:19:19.910Z,3.57
2019-03-13T06:20:30.011Z,3.72
2019-03-13T06:21:40.110Z,3.68
2019-03-13T06:22:50.222Z,3.67
2019-03-13T06:24:00.398Z,3.8
2019-03-13T06:25:10.539Z,3.98
2019-03-13T06:26:20.840Z,3.94
2019-03-13T06:27:30.957Z,3.93
2019-03-13T06:28:41.071Z,3.9
2019-03-13T06:29:51.174Z,3.79
2019-03-13T06:31:01.282Z,3.75
2019-03-13T06:32:11.411Z,3.76
2019-03-13T06:33:21.523Z,3.65
2019-03-13T06:34:31.627Z,3.75
2019-03-13T06:35:41.734Z,3.69
2019-03-13T06:36:51.853Z,3.76
2019-03-13T06:38:01.971Z,3.79
2019-03-13T06:39:12.113Z,3.75
2019-03-13T06:40:22.297Z,3.8
2019-03-13T06:41:32.464Z,3.83
2019-03-13T06:42:42.613Z,3.83
2019-03-13T06:43:52.714Z,3.82
2019-03-13T06:45:02.863Z,3.82
2019-03-13T06:46:13.042Z,3.83
2019-03-13T06:47:25.008Z,3.83
2019-03-13T06:48:35.391Z,3.91
2019-03-13T06:49:45.544Z,3.91
2019-03-13T06:50:55.654Z,4.03
2019-03-13T06:52:05.808Z,4.05
2019-03-13T06:53:15.954Z,4.05
2019-03-13T06:54:26.076Z,3.98
2019-03-13T06:55:36.203Z,4.22
2019-03-13T06:56:46.311Z,4.22
2019-03-13T06:57:56.403Z,4.2
2019-03-13T06:59:06.510Z,4.22
2019-03-13T07:00:19.084Z,4.34
2019-03-13T07:01:29.179Z,4.33
2019-03-13T07:02:39.274Z,4.27
2019-03-13T07:03:49.374Z,4.38
2019-03-13T07:04:59.502Z,4.43
2019-03-13T07:06:09.353Z,4.49
2019-03-13T07:07:19.464Z,4.57
2019-03-13T07:08:29.581Z,4.57
2019-03-13T07:09:41.757Z,4.5
2019-03-13T07:10:51.859Z,4.65
2019-03-13T07:12:01.985Z,4.7
2019-03-13T07:13:12.204Z,4.68
2019-03-13T07:14:22.299Z,4.65
2019-03-13T07:15:35.598Z,4.63
2019-03-13T07:16:45.624Z,4.77
2019-03-13T07:17:55.760Z,4.81
2019-03-13T07:19:05.871Z,4.81
2019-03-13T07:20:15.979Z,4.96
2019-03-13T07:21:28.463Z,5.07
2019-03-13T07:22:38.566Z,5.06
2019-03-13T07:23:48.695Z,5.13
2019-03-13T07:24:58.295Z,5.16
2019-03-13T07:26:08.435Z,5.1
2019-03-13T07:27:18.548Z,5.17
2019-03-13T07:28:28.708Z,5.21
2019-03-13T07:29:38.817Z,5.31
2019-03-13T07:30:48.955Z,5.31
2019-03-13T07:31:59.090Z,5.32
2019-03-13T07:33:09.226Z,5.29
2019-03-13T07:34:19.341Z,5.18
2019-03-13T07:35:29.438Z,5.21
2019-03-13T07:36:39.588Z,5.22
2019-03-13T07:37:49.803Z,5.31
2019-03-13T07:38:59.909Z,5.35
2019-03-13T07:40:10.036Z,5.35
2019-03-13T07:41:20.276Z,5.32
2019-03-13T07:42:30.412Z,5.38
2019-03-13T07:43:40.549Z,5.4
2019-03-13T07:44:50.665Z,5.38
2019-03-13T07:46:00.830Z,5.5
2019-03-13T07:47:10.949Z,5.51
2019-03-13T07:48:21.071Z,5.53
2019-03-13T07:49:31.192Z,5.72
2019-03-13T07:50:41.309Z,5.77
2019-03-13T07:51:50.830Z,5.88
2019-03-13T07:53:00.946Z,6.01
2019-03-13T07:54:11.045Z,6.11
2019-03-13T07:55:20.894Z,6.24
2019-03-13T07:56:31.025Z,6.74
2019-03-13T07:57:41.182Z,7.39
2019-03-13T07:58:51.311Z,8.28
2019-03-13T08:00:01.440Z,8.95
2019-03-13T08:01:11.556Z,8.92
2019-03-13T08:02:21.686Z,8.82
2019-03-13T08:03:31.785Z,8.53
2019-03-13T08:04:41.892Z,8.16
2019-03-13T08:05:51.999Z,7.87
2019-03-13T08:07:02.123Z,7.62
2019-03-13T08:08:12.231Z,7.55
2019-03-13T08:09:22.350Z,7.28
2019-03-13T08:10:32.486Z,7.15
2019-03-13T08:11:44.164Z,6.95
2019-03-13T08:12:54.702Z,6.82
2019-03-13T08:14:04.563Z,6.64
2019-03-13T08:15:14.434Z,6.59
2019-03-13T08:16:24.556Z,6.59
2019-03-13T08:17:34.666Z,6.53
2019-03-13T08:18:44.800Z,6.57
2019-03-13T08:19:54.951Z,6.54
2019-03-13T08:21:05.078Z,6.45
2019-03-13T08:22:15.209Z,6.31
2019-03-13T08:23:25.368Z,6.26
2019-03-13T08:24:35.555Z,6.38
2019-03-13T08:25:45.692Z,6.48
2019-03-13T08:26:55.911Z,6.92
2019-03-13T08:28:06.043Z,7.36
2019-03-13T08:29:16.140Z,7.76
2019-03-13T08:30:26.271Z,7.76
2019-03-13T08:31:36.402Z,7.85
2019-03-13T08:32:46.533Z,7.87
2019-03-13T08:33:56.667Z,7.76
2019-03-13T08:35:06.798Z,7.69
2019-03-13T08:36:16.672Z,7.48
2019-03-13T08:37:26.813Z,7.28
2019-03-13T08:38:36.924Z,7.2
2019-03-13T08:39:47.037Z,7.17
2019-03-13T08:40:57.156Z,7.06
2019-03-13T08:42:07.254Z,6.97
2019-03-13T08:43:17.475Z,6.99
2019-03-13T08:44:27.603Z,7.2
2019-03-13T08:45:37.710Z,7.28
2019-03-13T08:46:47.827Z,7.47
2019-03-13T08:47:57.951Z,7.67
2019-03-13T08:49:08.087Z,8.28
2019-03-13T08:50:18.191Z,9.16
2019-03-13T08:51:28.317Z,10.02
2019-03-13T08:52:38.436Z,10.61
2019-03-13T08:53:48.559Z,11.06
2019-03-13T08:55:01.528Z,11.46
2019-03-13T08:56:11.052Z,11.89
2019-03-13T08:57:21.191Z,12.05
2019-03-13T08:58:31.329Z,12.24
2019-03-13T08:59:41.433Z,12.55
2019-03-13T09:00:51.563Z,12.44
2019-03-13T09:02:01.670Z,12.27
2019-03-13T09:03:11.831Z,12.01
2019-03-13T09:04:21.954Z,11.61
2019-03-13T09:05:32.072Z,10.98
2019-03-13T09:06:42.197Z,10.67
2019-03-13T09:07:52.404Z,10.19
2019-03-13T09:09:02.553Z,9.67
2019-03-13T09:10:12.676Z,9.45
2019-03-13T09:11:22.803Z,9.17
2019-03-13T09:12:32.936Z,8.97
2019-03-13T09:13:43.067Z,8.84
2019-03-13T09:14:52.933Z,8.6
2019-03-13T09:16:03.059Z,8.49
2019-03-13T09:17:13.190Z,8.42
2019-03-13T09:18:23.304Z,8.25
2019-03-13T09:19:33.419Z,8.09
2019-03-13T09:20:43.538Z,7.99
2019-03-13T09:21:53.666Z,7.84
2019-03-13T09:23:03.792Z,7.87
2019-03-13T09:24:14.024Z,7.9
2019-03-13T09:25:24.189Z,8.15
2019-03-13T09:26:34.342Z,8.45
2019-03-13T09:27:44.544Z,8.49
2019-03-13T09:28:54.678Z,8.66
2019-03-13T09:30:04.797Z,8.79
2019-03-13T09:31:14.943Z,8.79
2019-03-13T09:32:25.068Z,9.29
2019-03-13T09:33:35.187Z,9.73
2019-03-13T09:34:44.701Z,10.19
2019-03-13T09:35:54.833Z,10.58
2019-03-13T09:37:04.975Z,10.92
2019-03-13T09:38:14.847Z,11.15
2019-03-13T09:39:24.991Z,11.65
2019-03-13T09:40:35.126Z,11.95
2019-03-13T09:41:45.249Z,11.83
2019-03-13T09:42:55.374Z,11.58
2019-03-13T09:44:05.505Z,11.68
2019-03-13T09:45:15.422Z,12.04
2019-03-13T09:46:25.547Z,12.38
2019-03-13T09:47:35.930Z,12.75
2019-03-13T09:48:46.099Z,12.92
2019-03-13T09:49:56.214Z,13.03
2019-03-13T09:51:06.323Z,13.41
2019-03-13T09:52:16.470Z,13.56
2019-03-13T09:53:26.631Z,13.61
2019-03-13T09:54:36.749Z,13.63
2019-03-13T09:55:46.865Z,13.63
2019-03-13T09:56:57.012Z,13.59
2019-03-13T09:58:07.321Z,13.36
2019-03-13T09:59:17.545Z,13.12
2019-03-13T10:00:27.880Z,12.93
2019-03-13T10:01:37.993Z,12.74
2019-03-13T10:02:48.515Z,12.52
2019-03-13T10:03:58.381Z,12.17
2019-03-13T10:05:08.492Z,12.24
2019-03-13T10:06:22.342Z,12.27
2019-03-13T10:08:45.661Z,12.24
2019-03-13T10:09:55.801Z,12.39
2019-03-13T10:12:20.984Z,12.78
2019-03-13T10:13:31.105Z,12.59
2019-03-13T10:14:41.824Z,12.35
2019-03-13T10:15:51.944Z,12.05
2019-03-13T10:17:14.594Z,11.76
2019-03-13T10:19:38.534Z,11.28
2019-03-13T10:20:50.930Z,11.23
2019-03-13T10:22:01.070Z,11.1
2019-03-13T10:23:11.223Z,11.21
2019-03-13T10:24:21.416Z,11.3
2019-03-13T10:25:31.608Z,11.42
2019-03-13T10:26:41.717Z,11.42
2019-03-13T10:27:51.850Z,11.52
2019-03-13T10:29:01.986Z,11.53
2019-03-13T10:30:12.189Z,11.42
2019-03-13T10:31:22.296Z,11.28
2019-03-13T10:32:32.183Z,10.92
2019-03-13T10:33:42.360Z,10.55
2019-03-13T10:34:52.505Z,10.43
2019-03-13T10:36:02.649Z,10.58
2019-03-13T10:37:12.786Z,10.54
2019-03-13T10:38:22.668Z,10.57
2019-03-13T10:39:32.791Z,10.43
2019-03-13T10:40:42.937Z,10.37
2019-03-13T10:41:53.062Z,10.34
2019-03-13T10:43:06.454Z,10.24
2019-03-13T10:44:16.576Z,9.98
2019-03-13T10:45:26.725Z,9.58
2019-03-13T10:46:36.601Z,9.47
2019-03-13T10:47:46.735Z,9.25
2019-03-13T10:48:58.519Z,8.98
2019-03-13T10:50:08.642Z,8.74
2019-03-13T10:51:18.845Z,8.43
2019-03-13T10:52:29.005Z,8.48
2019-03-13T10:53:39.121Z,8.43
2019-03-13T10:54:49.347Z,8.24
2019-03-13T10:56:00.263Z,8.16
2019-03-13T10:57:10.378Z,8.06
2019-03-13T10:58:20.500Z,8.02
2019-03-13T10:59:30.612Z,7.97
2019-03-13T11:00:40.789Z,7.98
2019-03-13T11:01:53.807Z,7.92
2019-03-13T11:03:03.932Z,7.92
2019-03-13T11:04:13.830Z,7.9
2019-03-13T11:05:23.960Z,7.84
2019-03-13T11:06:34.076Z,7.85
2019-03-13T11:07:44.216Z,7.8
2019-03-13T11:08:54.354Z,7.77
2019-03-13T11:10:04.459Z,7.66
2019-03-13T11:11:14.593Z,7.74
2019-03-13T11:12:24.725Z,7.64
2019-03-13T11:13:34.855Z,7.59
2019-03-13T11:14:44.733Z,7.55
2019-03-13T11:15:54.851Z,7.54
2019-03-13T11:17:04.975Z,7.56
2019-03-13T11:18:17.923Z,7.55
2019-03-13T11:19:28.220Z,7.56
2019-03-13T11:20:38.339Z,7.61
2019-03-13T11:21:48.474Z,7.47
2019-03-13T11:22:58.585Z,7.48
2019-03-13T11:24:08.716Z,7.43
2019-03-13T11:25:18.823Z,7.41
2019-03-13T11:26:28.958Z,7.33
2019-03-13T11:27:39.076Z,7.29
2019-03-13T11:28:49.216Z,7.24
2019-03-13T11:29:59.359Z,7.26
2019-03-13T11:31:09.233Z,7.26
2019-03-13T11:32:19.094Z,7.29
2019-03-13T11:33:29.230Z,7.26
2019-03-13T11:34:39.355Z,7.29
2019-03-13T11:35:49.479Z,7.29
2019-03-13T11:36:59.607Z,7.26
2019-03-13T11:38:09.759Z,7.24
2019-03-13T11:39:19.872Z,7.29
2019-03-13T11:40:29.997Z,7.33
2019-03-13T11:41:40.136Z,7.37
2019-03-13T11:42:50.259Z,7.44
2019-03-13T11:44:00.387Z,7.36
2019-03-13T11:45:10.596Z,7.39
2019-03-13T11:46:20.791Z,7.4
2019-03-13T11:47:44.284Z,7.36
2019-03-13T11:48:54.463Z,7.31
2019-03-13T11:50:04.590Z,7.21
2019-03-13T11:51:14.813Z,7.24
2019-03-13T11:52:24.934Z,7.26
2019-03-13T11:53:34.840Z,7.2
2019-03-13T11:54:44.721Z,7.24
2019-03-13T11:55:54.869Z,7.26
2019-03-13T11:57:05.004Z,7.18
2019-03-13T11:58:15.121Z,7.24
2019-03-13T11:59:25.243Z,7.26
2019-03-13T12:00:35.378Z,7.29
2019-03-13T12:01:50.610Z,7.33
2019-03-13T12:03:00.774Z,7.26
2019-03-13T12:04:10.879Z,7.31
2019-03-13T12:05:21.010Z,7.28
2019-03-13T12:06:31.177Z,7.47
2019-03-13T12:07:43.699Z,7.43
2019-03-13T12:08:53.823Z,7.47
2019-03-13T12:10:03.943Z,7.59
2019-03-13T12:11:14.062Z,7.58
2019-03-13T12:12:24.280Z,7.56
2019-03-13T12:13:34.491Z,7.55
2019-03-13T12:14:44.619Z,7.56
2019-03-13T12:15:54.472Z,7.64
2019-03-13T12:17:04.685Z,7.61
2019-03-13T12:18:14.815Z,7.67
2019-03-13T12:19:24.934Z,7.76
2019-03-13T12:20:35.049Z,7.76
2019-03-13T12:21:45.170Z,7.79
2019-03-13T12:22:55.043Z,7.74
2019-03-13T12:24:05.177Z,7.72
2019-03-13T12:25:15.314Z,7.73
2019-03-13T12:26:25.504Z,7.72
2019-03-13T12:27:35.647Z,7.76
2019-03-13T12:28:45.960Z,7.74
2019-03-13T12:29:56.071Z,7.73
2019-03-13T12:31:06.247Z,7.82
2019-03-13T12:32:19.366Z,7.76
2019-03-13T12:33:29.479Z,7.76
2019-03-13T12:34:40.866Z,7.82
2019-03-13T12:35:50.994Z,7.85
2019-03-13T12:37:01.237Z,7.88
2019-03-13T12:38:11.386Z,7.91
2019-03-13T12:39:21.525Z,7.9
2019-03-13T12:40:31.649Z,7.87
2019-03-13T12:41:41.755Z,7.82
2019-03-13T12:42:51.907Z,7.95
2019-03-13T12:44:02.065Z,8.02
2019-03-13T12:45:12.237Z,8.27
2019-03-13T12:46:22.414Z,8.34
2019-03-13T12:47:32.542Z,8.52
2019-03-13T12:48:42.682Z,8.49
2019-03-13T12:49:52.819Z,8.49
2019-03-13T12:51:02.688Z,8.5
2019-03-13T12:52:12.828Z,8.53
2019-03-13T12:53:22.951Z,8.48
2019-03-13T12:54:33.072Z,8.49
2019-03-13T12:55:43.189Z,8.55
2019-03-13T12:56:53.326Z,8.58
2019-03-13T12:58:03.463Z,8.66
2019-03-13T12:59:13.609Z,8.74
2019-03-13T13:00:23.749Z,8.89
2019-03-13T13:01:33.871Z,9.05
2019-03-13T13:02:43.991Z,8.97
2019-03-13T13:03:54.107Z,8.9
2019-03-13T13:05:04.221Z,8.67
2019-03-13T13:06:14.385Z,8.63
2019-03-13T13:07:24.261Z,8.55
2019-03-13T13:08:34.378Z,8.5
2019-03-13T13:09:45.486Z,8.52
2019-03-13T13:10:55.661Z,8.39
2019-03-13T13:12:05.773Z,8.3
2019-03-13T13:13:15.904Z,8.23
2019-03-13T13:14:25.816Z,8.16
2019-03-13T13:15:35.963Z,8.12
2019-03-13T13:16:46.094Z,8.13
2019-03-13T13:17:55.952Z,8.03
2019-03-13T13:19:06.071Z,7.95
2019-03-13T13:20:16.258Z,7.87
2019-03-13T13:21:29.499Z,7.8
2019-03-13T13:22:39.627Z,7.85
2019-03-13T13:23:49.798Z,7.85
2019-03-13T13:24:59.678Z,7.73
2019-03-13T13:26:09.841Z,7.8
2019-03-13T13:27:19.972Z,7.82
2019-03-13T13:28:30.086Z,7.77
2019-03-13T13:29:40.214Z,7.77
2019-03-13T13:30:50.359Z,7.82
2019-03-13T13:32:00.564Z,7.84
2019-03-13T13:33:10.705Z,7.79
2019-03-13T13:34:20.846Z,7.87
2019-03-13T13:35:30.970Z,7.84
2019-03-13T13:36:41.101Z,7.85
2019-03-13T13:37:51.234Z,7.84
2019-03-13T13:39:01.367Z,7.79
2019-03-13T13:40:11.501Z,7.84
2019-03-13T13:41:21.624Z,7.74
2019-03-13T13:42:31.753Z,7.72
2019-03-13T13:43:41.914Z,7.79
2019-03-13T13:44:52.041Z,7.62
2019-03-13T13:46:02.166Z,7.76
2019-03-13T13:47:12.300Z,7.69
2019-03-13T13:48:22.429Z,7.64
2019-03-13T13:49:32.302Z,7.55
2019-03-13T13:50:42.426Z,7.54
2019-03-13T13:51:52.311Z,7.51
2019-03-13T13:53:02.448Z,7.48
2019-03-13T13:54:12.688Z,7.48
2019-03-13T13:55:22.803Z,7.43
2019-03-13T13:56:32.986Z,7.4
2019-03-13T13:57:43.128Z,7.34
2019-03-13T13:58:53.251Z,7.44
2019-03-13T14:00:04.343Z,7.34
2019-03-13T14:01:14.482Z,7.36
2019-03-13T14:02:24.595Z,7.29
2019-03-13T14:03:34.766Z,7.22
2019-03-13T14:04:44.900Z,7.24
2019-03-13T14:05:55.022Z,7.24
2019-03-13T14:07:05.160Z,7.29
2019-03-13T14:08:15.265Z,7.39
2019-03-13T14:09:25.415Z,7.36
2019-03-13T14:10:35.561Z,7.43
2019-03-13T14:11:45.682Z,7.41
2019-03-13T14:12:55.815Z,7.58
2019-03-13T14:14:05.954Z,7.56
2019-03-13T14:15:16.084Z,7.62
2019-03-13T14:16:26.213Z,7.59
2019-03-13T14:17:36.335Z,7.7
2019-03-13T14:18:46.467Z,7.72
2019-03-13T14:19:56.580Z,7.62
2019-03-13T14:21:06.461Z,7.74
2019-03-13T14:22:16.603Z,7.72
2019-03-13T14:23:26.936Z,7.79
2019-03-13T14:24:37.040Z,7.82
2019-03-13T14:25:47.202Z,7.74
2019-03-13T14:26:57.419Z,7.87
2019-03-13T14:28:19.705Z,7.88
2019-03-13T14:29:29.856Z,7.88
2019-03-13T14:30:40.028Z,7.82
2019-03-13T14:31:50.151Z,7.87
2019-03-13T14:33:00.286Z,7.8
2019-03-13T14:34:10.417Z,7.9
2019-03-13T14:35:20.544Z,7.92
2019-03-13T14:36:30.680Z,7.88
2019-03-13T14:37:40.889Z,7.84
2019-03-13T14:38:50.769Z,7.79
2019-03-13T14:40:00.939Z,7.8
2019-03-13T14:41:11.066Z,7.76
2019-03-13T14:42:21.211Z,7.74
2019-03-13T14:43:31.343Z,7.77
2019-03-13T14:44:41.463Z,7.77
2019-03-13T14:45:51.594Z,7.8
2019-03-13T14:47:01.736Z,7.73
2019-03-13T14:48:11.862Z,7.7
2019-03-13T14:49:22.005Z,7.76
2019-03-13T14:50:31.894Z,7.72
2019-03-13T14:51:44.372Z,7.82
2019-03-13T14:52:54.520Z,7.69
2019-03-13T14:54:04.676Z,7.62
2019-03-13T14:55:14.829Z,7.73
2019-03-13T14:56:25.213Z,7.66
2019-03-13T14:57:35.360Z,7.76
2019-03-13T14:58:45.519Z,7.73
2019-03-13T14:59:55.716Z,7.67
2019-03-13T15:01:06.010Z,7.74
2019-03-13T15:02:16.135Z,7.72
2019-03-13T15:03:26.320Z,7.73
2019-03-13T15:04:36.461Z,7.61
2019-03-13T15:05:46.587Z,7.62
2019-03-13T15:06:56.737Z,7.59
2019-03-13T15:08:06.885Z,7.59
2019-03-13T15:09:17.044Z,7.66
2019-03-13T15:10:27.426Z,7.59
2019-03-13T15:11:37.568Z,7.61
2019-03-13T15:12:48.200Z,7.67
2019-03-13T15:13:58.351Z,7.58
2019-03-13T15:15:08.477Z,7.62
2019-03-13T15:16:18.630Z,7.61
2019-03-13T15:17:28.739Z,7.56
2019-03-13T15:18:38.879Z,7.62
2019-03-13T15:19:49.082Z,7.62
2019-03-13T15:20:59.209Z,7.66
2019-03-13T15:22:09.354Z,7.58
2019-03-13T15:23:19.511Z,7.59
2019-03-13T15:24:29.635Z,7.52
2019-03-13T15:25:39.775Z,7.58
2019-03-13T15:26:49.905Z,7.47
2019-03-13T15:28:00.114Z,7.51
2019-03-13T15:29:10.340Z,7.48
2019-03-13T15:30:20.491Z,7.48
2019-03-13T15:31:30.638Z,7.41
2019-03-13T15:32:40.782Z,7.39
2019-03-13T15:33:50.908Z,7.26
2019-03-13T15:35:01.041Z,7.33
2019-03-13T15:36:11.192Z,7.31
2019-03-13T15:37:21.331Z,7.29
2019-03-13T15:38:31.484Z,7.24